Observations for MADISON DANE RGNL, WI (MSN)

KMSN 230953Z AUTO 33006KT 10SM CLR 03/M02 A3020 RMK AO2 SLP231 T00331022
KMSN 230853Z AUTO 33008G14KT 10SM CLR 05/M03 A3019 RMK AO2 SLP225 T00501028 53019   
KMSN 230753Z AUTO 33007KT 10SM CLR 06/M03 A3016 RMK AO2 SLP218 T00561033
KMSN 230653Z AUTO 33008KT 10SM CLR 07/M03 A3015 RMK AO2 SLP212 T00671033
KMSN 230553Z AUTO 33006KT 10SM CLR 07/M03 A3013 RMK AO2 SLP206 T00721033 10128 20067 401721011 53023
KMSN 230453Z AUTO 31006KT 10SM CLR 08/M03 A3010 RMK AO2 SLP196 T00781028
KMSN 230353Z 30006KT 10SM CLR 08/M03 A3007 RMK AO2 SLP188 LAST T00831028
KMSN 230253Z 28004KT 10SM CLR 07/M02 A3006 RMK AO2 SLP185 T00671017 51020   
KMSN 230153Z 29003KT 10SM CLR 11/M03 A3004 RMK AO2 SLP179 T01061033 
KMSN 230053Z 30004KT 10SM CLR 12/M04 A3002 RMK AO2 SLP173 T01171039 
KMSN 222353Z 29005KT 10SM CLR 13/M02 A3000 RMK AO2 SLP165 T01281017 10172 20128 53009   
KMSN 222253Z VRB03KT 10SM CLR 15/M01 A2998 RMK AO2 SLP155 T01501006 
KMSN 222153Z 30008G23KT 10SM CLR 17/M02 A2997 RMK AO2 SLP154 T01671017  
KMSN 222053Z 29007G19KT 260V320 10SM CLR 17/M02 A2997 RMK AO2 SLP153 T01671017 55016
KMSN 221953Z 29009G18KT 10SM CLR 17/M02 A2997 RMK AO2 SLP153 T01671017  
KMSN 221853Z 24008KT 10SM FEW250 15/00 A3000 RMK AO2 SLP162 T01500000   
KMSN 221753Z VRB06KT 10SM FEW250 14/01 A3002 RMK AO2 SLP171 T01390006 10139 21011 58007 
KMSN 221653Z VRB04KT 10SM FEW250 12/01 A3004 RMK AO2 SLP178 T01220011   
KMSN 221553Z 27005KT 10SM SCT250 09/01 A3005 RMK AO2 SLP180 T00940006   
KMSN 221453Z 32005KT 10SM BKN250 07/00 A3004 RMK AO2 SLP179 T00670000 51010 
KMSN 221353Z 00000KT 10SM BKN250 01/M01 A3003 RMK AO2 SLP178 T00111011  
KMSN 221253Z 00000KT 10SM BKN250 M01/M02 A3003 RMK AO2 SLP175 T10061017 
KMSN 221153Z 00000KT 10SM BKN250 M01/M02 A3001 RMK AO2 SLP171 T10111022 10022 21011 51004   
KMSN 221053Z 00000KT 10SM BKN250 M01/M02 A3001 RMK AO2 SLP170 T10061017 
KMSN 220953Z AUTO 00000KT 10SM CLR M01/M02 A3000 RMK AO2 SLP167 T10061022